Turks and Caicos Islands Weather

[source: ADDS]
METAR
MBPV 270510Z 2706/2806 10008KT 9999 VCSH FEW016CB SCT018 PROB30 TEMPO 2712/2716 12016KT 6000 TSRA SCT015CB BKN018 BECMG 2720/2722 FEW018 MBGT 270510Z 2706/2806 10008KT 9999 VCSH FEW016CB SCT018 PROB30 TEMPO 2712/2716 12016KT 6000 TSRA SCT015CB BKN018 BECMG 2720/2722 FEW018 TAF
MBPV 270510Z 2706/2806 10008KT 9999 VCSH FEW016CB SCT018 PROB30 TEMPO 2712/2716 12016KT 6000 TSRA SCT015CB BKN018 BECMG 2720/2722 FEW018 =
MBGT 270510Z 2706/2806 10008KT 9999 VCSH FEW016CB SCT018 PROB30 TEMPO 2712/2716 12016KT 6000 TSRA SCT015CB BKN018 BECMG 2720/2722 FEW018 =
SR / SS: 10:20 / 23:30 UTC (MBPV 2016-07-27)
E-mail Print PDF
Weather